Time;durP1;ratioP1;P1;durP2;ratioP2;P2;SDS_P1;SDS_P2;PMS_P1;PMS_P2;Temp;Humidity;BMP_temperature;BMP_pressure;BME280_temperature;BME280_humidity;BME280_pressure;Samples;Min_cycle;Max_cycle;Signal;HPM_P1;HPM_P2
2022/04/30 00:00:58;;;;;;;0.00;0.00;;;12.50;92.30;;;;;;5014136;28;20037;-83
2022/04/30 00:03:28;;;;;;;0.00;0.00;;;12.50;92.70;;;;;;5019251;28;20043;-80
2022/04/30 00:05:56;;;;;;;0.00;0.00;;;12.50;92.40;;;;;;5015792;28;20045;-84
2022/04/30 00:08:23;;;;;;;0.00;0.00;;;12.50;93.20;;;;;;5020486;28;20025;-83
2022/04/30 00:10:50;;;;;;;0.00;0.00;;;12.40;92.30;;;;;;5022053;28;20026;-83
2022/04/30 00:13:16;;;;;;;0.00;0.00;;;12.40;93.20;;;;;;5023040;28;20036;-83
2022/04/30 00:15:42;;;;;;;0.00;0.00;;;12.40;93.50;;;;;;5023668;28;20038;-83
2022/04/30 00:18:09;;;;;;;0.00;0.00;;;12.40;93.50;;;;;;5024619;28;20032;-83
2022/04/30 00:20:38;;;;;;;0.00;0.00;;;12.30;93.50;;;;;;5030742;28;20311;-83
2022/04/30 00:23:05;;;;;;;0.00;0.00;;;12.40;93.40;;;;;;5026552;28;20025;-83
2022/04/30 00:25:30;;;;;;;0.00;0.00;;;12.40;93.20;;;;;;5021814;28;20084;-80
2022/04/30 00:27:56;;;;;;;0.00;0.00;;;12.30;93.90;;;;;;5029663;28;20056;-84
2022/04/30 00:30:22;;;;;;;0.00;0.00;;;12.30;94.50;;;;;;5021650;28;20169;-81
2022/04/30 00:32:48;;;;;;;0.00;0.00;;;12.30;95.10;;;;;;5018049;28;20037;-84
2022/04/30 00:35:15;;;;;;;0.00;0.00;;;12.30;95.10;;;;;;5030192;28;20060;-80
2022/04/30 00:37:41;;;;;;;0.00;0.00;;;12.20;94.20;;;;;;5017996;28;20339;-83
2022/04/30 00:40:07;;;;;;;0.00;0.00;;;12.10;93.90;;;;;;5024090;28;20022;-79
2022/04/30 00:42:33;;;;;;;0.00;0.00;;;12.10;93.50;;;;;;5018858;28;20037;-82
2022/04/30 00:44:59;;;;;;;0.00;0.00;;;12.00;93.90;;;;;;5019267;28;20269;-83
2022/04/30 00:47:26;;;;;;;0.00;0.00;;;12.10;94.80;;;;;;5024430;28;20093;-83
2022/04/30 00:49:52;;;;;;;0.00;0.00;;;12.00;95.00;;;;;;5031046;28;20037;-82
2022/04/30 00:52:19;;;;;;;0.00;0.00;;;12.00;95.00;;;;;;5031601;28;20096;-82
2022/04/30 00:54:59;;;;;;;0.00;0.00;;;12.00;96.10;;;;;;5021207;28;20324;-82
2022/04/30 00:57:27;;;;;;;0.00;0.00;;;11.90;95.70;;;;;;5024578;28;20097;-83
2022/04/30 01:00:00;;;;;;;;;;;11.90;95.50;;;;;;5016647;28;20052;-82
2022/04/30 01:02:31;;;;;;;0.00;0.00;;;11.90;95.40;;;;;;5032995;28;20004;-80
2022/04/30 01:04:58;;;;;;;0.00;0.00;;;11.80;95.60;;;;;;5022736;28;20021;-78
2022/04/30 01:07:25;;;;;;;0.00;0.00;;;11.70;94.80;;;;;;5017144;28;20021;-82
2022/04/30 01:09:53;;;;;;;0.00;0.00;;;11.70;94.70;;;;;;5022580;28;20029;-83
2022/04/30 01:12:20;;;;;;;0.00;0.00;;;11.70;94.80;;;;;;5029716;28;20057;-83
2022/04/30 01:14:47;;;;;;;0.00;0.00;;;11.60;95.00;;;;;;5023310;28;20308;-84
2022/04/30 01:17:13;;;;;;;0.00;0.00;;;11.60;95.70;;;;;;5030759;28;20320;-82
2022/04/30 01:19:42;;;;;;;0.00;0.00;;;11.60;95.50;;;;;;5017946;28;20170;-80
2022/04/30 01:22:38;;;;;;;0.00;0.00;;;11.60;95.20;;;;;;5030312;28;20195;-82
2022/04/30 01:25:04;;;;;;;0.00;0.00;;;11.60;96.50;;;;;;5019449;28;20041;-81
2022/04/30 01:27:30;;;;;;;0.00;0.00;;;11.50;95.20;;;;;;5032753;28;20025;-80
2022/04/30 01:29:59;;;;;;;0.00;0.00;;;11.60;95.90;;;;;;5030921;28;20345;-83
2022/04/30 01:38:01;;;;;;;0.00;0.00;;;11.50;96.70;;;;;;5014440;28;20363;-83
2022/04/30 01:40:29;;;;;;;0.00;0.00;;;11.50;96.40;;;;;;5029260;28;20022;-81
2022/04/30 01:42:58;;;;;;;0.00;0.00;;;11.50;97.00;;;;;;5028882;28;20108;-83
2022/04/30 01:45:24;;;;;;;0.00;0.00;;;11.40;97.30;;;;;;5022737;28;20316;-83
2022/04/30 01:47:52;;;;;;;0.00;0.00;;;11.40;96.90;;;;;;5017885;28;20104;-83
2022/04/30 01:50:17;;;;;;;0.00;0.00;;;11.30;96.70;;;;;;5021247;28;20073;-83
2022/04/30 01:52:43;;;;;;;0.00;0.00;;;11.30;96.60;;;;;;5021110;28;20276;-83
2022/04/30 01:55:09;;;;;;;0.00;0.00;;;11.30;97.30;;;;;;5033834;28;20052;-83
2022/04/30 01:57:38;;;;;;;0.00;0.00;;;11.30;98.20;;;;;;5026699;28;20025;-83
2022/04/30 02:00:06;;;;;;;0.00;0.00;;;11.30;98.60;;;;;;5028239;28;20052;-83
2022/04/30 02:02:36;;;;;;;0.00;0.00;;;11.20;98.60;;;;;;5033491;28;20083;-83
2022/04/30 02:05:05;;;;;;;0.00;0.00;;;11.20;98.70;;;;;;5025628;28;20280;-83
2022/04/30 02:07:38;;;;;;;;;;;11.20;98.30;;;;;;5025843;28;20377;-79
2022/04/30 02:10:06;;;;;;;0.00;0.00;;;11.20;98.10;;;;;;5025008;28;20180;-82
2022/04/30 02:12:33;;;;;;;0.00;0.00;;;11.10;97.60;;;;;;5029376;28;20066;-82
2022/04/30 02:15:00;;;;;;;0.00;0.00;;;11.10;98.70;;;;;;5031888;28;20367;-83
2022/04/30 02:17:28;;;;;;;0.00;0.00;;;11.20;99.00;;;;;;5024413;28;20096;-83
2022/04/30 02:22:47;;;;;;;0.00;0.00;;;11.10;99.20;;;;;;5020582;28;20160;-83
2022/04/30 02:25:15;;;;;;;0.00;0.00;;;11.10;99.60;;;;;;5036022;28;20083;-81
2022/04/30 02:27:43;;;;;;;0.00;0.00;;;11.10;98.60;;;;;;5023322;28;20037;-82
2022/04/30 02:30:14;;;;;;;0.00;0.00;;;11.10;98.80;;;;;;5029349;28;20033;-82
2022/04/30 02:32:41;;;;;;;0.00;0.00;;;11.10;99.70;;;;;;5021481;28;20407;-79
2022/04/30 02:35:08;;;;;;;0.00;0.00;;;11.10;99.90;;;;;;5021921;28;20312;-80
2022/04/30 02:37:35;;;;;;;0.00;0.00;;;11.00;99.80;;;;;;5002879;28;20057;-83
2022/04/30 02:40:01;;;;;;;0.00;0.00;;;11.00;99.00;;;;;;5023671;28;20030;-82
2022/04/30 02:42:27;;;;;;;0.00;0.00;;;11.00;99.60;;;;;;5033047;28;20022;-82
2022/04/30 02:44:53;;;;;;;0.00;0.00;;;11.00;99.70;;;;;;5032029;28;20018;-81
2022/04/30 02:47:19;;;;;;;0.00;0.00;;;11.00;99.30;;;;;;5033699;28;20333;-83
2022/04/30 02:49:44;;;;;;;0.00;0.00;;;10.90;99.10;;;;;;5031651;28;20094;-82
2022/04/30 02:52:10;;;;;;;0.00;0.00;;;10.90;99.40;;;;;;5024634;28;20049;-83
2022/04/30 02:54:36;;;;;;;0.00;0.00;;;10.90;99.90;;;;;;5024288;28;20029;-82
2022/04/30 02:57:02;;;;;;;0.00;0.00;;;10.90;99.90;;;;;;5032065;28;20037;-83
2022/04/30 03:02:12;;;;;;;0.00;0.00;;;10.80;99.90;;;;;;5020043;28;20048;-82
2022/04/30 03:04:38;;;;;;;0.00;0.00;;;10.80;99.90;;;;;;5031877;28;20033;-83
2022/04/30 03:07:04;;;;;;;0.00;0.00;;;10.80;99.90;;;;;;5033715;28;20053;-83
2022/04/30 03:09:31;;;;;;;0.00;0.00;;;10.80;99.90;;;;;;5023994;28;20028;-79
2022/04/30 03:11:58;;;;;;;0.00;0.00;;;10.80;99.90;;;;;;5025984;28;20208;-81
2022/04/30 03:14:24;;;;;;;0.00;0.00;;;10.70;99.90;;;;;;5030647;28;20079;-82
2022/04/30 03:22:19;;;;;;;0.00;0.00;;;10.70;99.90;;;;;;5025191;28;20084;-82
2022/04/30 03:24:45;;;;;;;0.00;0.00;;;10.70;99.90;;;;;;5019981;28;20054;-78
2022/04/30 03:27:12;;;;;;;0.00;0.00;;;10.70;99.90;;;;;;5031258;28;20339;-83
2022/04/30 03:29:38;;;;;;;0.00;0.00;;;10.70;99.90;;;;;;5028044;28;20013;-83
2022/04/30 03:32:04;;;;;;;0.00;0.00;;;10.70;99.90;;;;;;5022165;28;20052;-81
2022/04/30 03:34:32;;;;;;;0.00;0.00;;;10.70;99.90;;;;;;5025696;28;20151;-84
2022/04/30 03:36:59;;;;;;;0.00;0.00;;;10.70;99.90;;;;;;5020970;28;20029;-82
2022/04/30 03:39:24;;;;;;;0.00;0.00;;;10.70;99.90;;;;;;5021060;28;20035;-78
2022/04/30 03:41:50;;;;;;;0.00;0.00;;;10.70;99.90;;;;;;5019655;28;20026;-82
2022/04/30 03:44:16;;;;;;;0.00;0.00;;;10.70;99.90;;;;;;5017910;28;20037;-81
2022/04/30 03:46:43;;;;;;;0.00;0.00;;;10.70;99.90;;;;;;5024440;28;20033;-82
2022/04/30 03:49:08;;;;;;;0.00;0.00;;;10.70;99.90;;;;;;5026565;28;20201;-82
2022/04/30 03:51:34;;;;;;;0.00;0.00;;;10.70;99.90;;;;;;5023808;28;20101;-81
2022/04/30 03:54:00;;;;;;;0.00;0.00;;;10.60;99.90;;;;;;5030912;28;20029;-82
2022/04/30 03:56:25;;;;;;;0.00;0.00;;;10.60;99.90;;;;;;5021164;28;20311;-80
2022/04/30 03:58:51;;;;;;;0.00;0.00;;;10.60;99.90;;;;;;5022594;28;20156;-82
2022/04/30 04:01:24;;;;;;;0.00;0.00;;;10.50;99.90;;;;;;5023616;28;20240;-79
2022/04/30 04:03:50;;;;;;;0.00;0.00;;;10.50;99.90;;;;;;5032761;28;20063;-82
2022/04/30 04:06:16;;;;;;;0.00;0.00;;;10.60;99.90;;;;;;5033923;28;20026;-84
2022/04/30 04:08:43;;;;;;;0.00;0.00;;;10.60;99.90;;;;;;5023162;28;20061;-80
2022/04/30 04:11:13;;;;;;;0.00;0.00;;;10.60;99.90;;;;;;5036488;28;20031;-81
2022/04/30 04:19:07;;;;;;;0.00;0.00;;;10.60;99.90;;;;;;5018236;28;20029;-81
2022/04/30 04:21:33;;;;;;;0.00;0.00;;;10.70;99.90;;;;;;5020875;28;20596;-82
2022/04/30 04:26:43;;;;;;;0.00;0.00;;;10.70;99.90;;;;;;5026526;28;20044;-82
2022/04/30 04:29:10;;;;;;;0.00;0.00;;;10.70;99.90;;;;;;5026925;28;20025;-83
2022/04/30 04:31:36;;;;;;;0.00;0.00;;;10.70;99.90;;;;;;5018920;28;20103;-81
2022/04/30 04:34:02;;;;;;;0.00;0.00;;;10.60;99.90;;;;;;5029378;28;20157;-83
2022/04/30 04:36:28;;;;;;;0.00;0.00;;;10.70;99.90;;;;;;5018237;28;20325;-83
2022/04/30 04:38:54;;;;;;;0.00;0.00;;;10.70;99.90;;;;;;5019885;28;20070;-82
2022/04/30 04:41:19;;;;;;;0.00;0.00;;;10.70;99.90;;;;;;5021252;28;20025;-83
2022/04/30 04:43:45;;;;;;;0.00;0.00;;;10.70;99.90;;;;;;5029443;28;20021;-82
2022/04/30 04:46:11;;;;;;;0.00;0.00;;;10.70;99.90;;;;;;5030542;28;20356;-83
2022/04/30 04:48:37;;;;;;;0.00;0.00;;;10.70;99.90;;;;;;5032948;28;20248;-79
2022/04/30 04:51:03;;;;;;;0.00;0.00;;;10.80;99.90;;;;;;5021853;28;20025;-80
2022/04/30 04:53:29;;;;;;;0.00;0.00;;;10.80;99.90;;;;;;5030457;28;20155;-80
2022/04/30 04:55:56;;;;;;;0.00;0.00;;;10.80;99.90;;;;;;5018511;28;20033;-82
2022/04/30 04:58:21;;;;;;;0.00;0.00;;;10.80;99.90;;;;;;5025075;28;20092;-82
2022/04/30 05:00:49;;;;;;;0.00;0.00;;;10.80;99.90;;;;;;5018338;28;20030;-78
2022/04/30 05:03:15;;;;;;;0.00;0.00;;;10.90;99.90;;;;;;5020584;28;20088;-81
2022/04/30 05:05:43;;;;;;;0.00;0.00;;;10.90;99.90;;;;;;5017452;28;20265;-79
2022/04/30 05:08:09;;;;;;;0.00;0.00;;;10.90;99.90;;;;;;5018783;28;20091;-82
2022/04/30 05:10:36;;;;;;;0.00;0.00;;;11.00;99.90;;;;;;5024337;28;20025;-82
2022/04/30 05:13:02;;;;;;;0.00;0.00;;;11.10;99.90;;;;;;5033356;28;20355;-82
2022/04/30 05:15:28;;;;;;;0.00;0.00;;;11.10;99.90;;;;;;5020557;28;20022;-82
2022/04/30 05:17:54;;;;;;;0.00;0.00;;;11.10;99.90;;;;;;5024344;28;20044;-82
2022/04/30 05:20:20;;;;;;;0.00;0.00;;;11.10;99.90;;;;;;5019423;28;20037;-82
2022/04/30 05:22:47;;;;;;;0.00;0.00;;;11.10;99.90;;;;;;5030026;28;20085;-78
2022/04/30 05:25:13;;;;;;;0.00;0.00;;;11.10;99.90;;;;;;5023984;28;20326;-82
2022/04/30 05:27:39;;;;;;;0.00;0.00;;;11.20;99.90;;;;;;5018657;28;20041;-82
2022/04/30 05:30:05;;;;;;;0.00;0.00;;;11.20;99.90;;;;;;5020889;28;20122;-83
2022/04/30 05:32:31;;;;;;;0.00;0.00;;;11.20;99.90;;;;;;5029107;28;20194;-82
2022/04/30 05:34:56;;;;;;;0.00;0.00;;;11.20;99.90;;;;;;5003334;28;20321;-81
2022/04/30 05:37:22;;;;;;;0.00;0.00;;;11.30;99.90;;;;;;5021615;28;20033;-79
2022/04/30 05:39:48;;;;;;;0.00;0.00;;;11.30;99.90;;;;;;5028105;28;20026;-81
2022/04/30 05:42:13;;;;;;;0.00;0.00;;;11.30;99.90;;;;;;5021067;28;20030;-80
2022/04/30 05:44:39;;;;;;;0.00;0.00;;;11.40;99.90;;;;;;5020419;28;20113;-84
2022/04/30 05:47:05;;;;;;;0.00;0.00;;;11.40;99.90;;;;;;5021734;28;20030;-81
2022/04/30 05:49:30;;;;;;;0.00;0.00;;;11.30;99.90;;;;;;5022893;28;20099;-81
2022/04/30 05:51:56;;;;;;;0.00;0.00;;;11.40;99.90;;;;;;5028154;28;20512;-84
2022/04/30 05:54:22;;;;;;;0.00;0.00;;;11.50;99.90;;;;;;5020492;28;20276;-82
2022/04/30 05:56:48;;;;;;;0.00;0.00;;;11.50;99.90;;;;;;5024767;28;20080;-82
2022/04/30 05:59:14;;;;;;;0.00;0.00;;;11.50;99.90;;;;;;5018743;28;20018;-82
2022/04/30 06:01:39;;;;;;;0.00;0.00;;;11.60;99.90;;;;;;5022357;28;20021;-82
2022/04/30 06:04:05;;;;;;;0.00;0.00;;;11.70;99.90;;;;;;5021132;28;20014;-78
2022/04/30 06:06:33;;;;;;;0.00;0.00;;;11.70;99.90;;;;;;5022067;28;20346;-82
2022/04/30 06:08:59;;;;;;;0.00;0.00;;;11.80;99.90;;;;;;5020993;28;20018;-79
2022/04/30 06:11:25;;;;;;;0.00;0.00;;;11.80;99.90;;;;;;5022325;28;20029;-81
2022/04/30 06:13:51;;;;;;;0.00;0.00;;;11.90;99.90;;;;;;5021792;28;20093;-81
2022/04/30 06:16:16;;;;;;;0.00;0.00;;;12.10;99.90;;;;;;5030372;28;20362;-81
2022/04/30 06:18:43;;;;;;;0.00;0.00;;;12.60;99.90;;;;;;5021246;28;20113;-80
2022/04/30 06:21:08;;;;;;;0.00;0.00;;;13.20;99.90;;;;;;5022130;28;20029;-77
2022/04/30 06:23:34;;;;;;;0.00;0.00;;;13.90;99.90;;;;;;5014520;28;20425;-81
2022/04/30 06:26:00;;;;;;;0.00;0.00;;;14.70;99.90;;;;;;5023201;28;20041;-81
2022/04/30 06:28:25;;;;;;;0.00;0.00;;;15.40;99.00;;;;;;5025399;28;20107;-82
2022/04/30 06:30:51;;;;;;;0.00;0.00;;;16.00;96.50;;;;;;5028239;28;20033;-81
2022/04/30 06:33:17;;;;;;;0.00;0.00;;;16.50;97.00;;;;;;5013808;28;20037;-80
2022/04/30 06:35:44;;;;;;;0.00;0.00;;;16.80;93.60;;;;;;5033450;28;20017;-81
2022/04/30 06:38:11;;;;;;;0.00;0.00;;;17.20;95.40;;;;;;5023043;28;20072;-82
2022/04/30 06:40:37;;;;;;;0.00;0.00;;;17.40;85.80;;;;;;5019993;28;20330;-79
2022/04/30 06:43:03;;;;;;;0.00;0.00;;;17.20;87.70;;;;;;5028577;28;20061;-83
2022/04/30 06:45:29;;;;;;;0.00;0.00;;;17.80;94.10;;;;;;5027213;28;20029;-83
2022/04/30 06:47:54;;;;;;;0.00;0.00;;;18.10;91.30;;;;;;5032918;28;20022;-82
2022/04/30 06:58:41;;;;;;;0.00;0.00;;;16.10;91.00;;;;;;5030179;28;20160;-83
2022/04/30 07:04:01;;;;;;;;;;;15.50;91.10;;;;;;5025701;28;20026;-83
2022/04/30 07:06:31;;;;;;;0.00;0.00;;;15.30;92.50;;;;;;5034297;28;19920;-81
2022/04/30 07:08:57;;;;;;;0.00;0.00;;;15.00;92.10;;;;;;5025303;28;20033;-78
2022/04/30 07:11:22;;;;;;;0.00;0.00;;;14.90;92.20;;;;;;5021191;28;20258;-82
2022/04/30 07:13:48;;;;;;;0.00;0.00;;;14.80;93.20;;;;;;5024719;28;20097;-83
2022/04/30 07:16:14;;;;;;;0.10;0.10;;;14.80;92.50;;;;;;5032688;28;20021;-83
2022/04/30 07:18:40;;;;;;;0.57;0.57;;;14.70;90.40;;;;;;5020514;28;20083;-84
2022/04/30 07:21:05;;;;;;;0.00;0.00;;;14.60;84.10;;;;;;5017316;28;20050;-85
2022/04/30 07:23:31;;;;;;;0.10;0.10;;;14.30;84.30;;;;;;5021669;28;20053;-84
2022/04/30 07:25:57;;;;;;;0.00;0.00;;;14.40;91.80;;;;;;5024936;28;20022;-79
2022/04/30 07:28:23;;;;;;;0.00;0.00;;;14.40;92.60;;;;;;5025443;28;20365;-81
2022/04/30 07:30:51;;;;;;;0.00;0.00;;;14.40;91.00;;;;;;5025769;28;20097;-83
2022/04/30 07:33:16;;;;;;;0.00;0.00;;;14.50;87.00;;;;;;5017880;28;20028;-83
2022/04/30 07:35:42;;;;;;;0.00;0.00;;;14.50;87.20;;;;;;5028606;28;20026;-83
2022/04/30 07:38:08;;;;;;;0.00;0.00;;;14.60;92.40;;;;;;5030274;28;20236;-82
2022/04/30 07:40:38;;;;;;;0.00;0.00;;;14.60;86.40;;;;;;5023937;28;20088;-82
2022/04/30 07:43:04;;;;;;;0.00;0.00;;;14.70;91.00;;;;;;5030063;28;20017;-83
2022/04/30 07:45:29;;;;;;;0.00;0.00;;;14.80;90.80;;;;;;5020255;28;20022;-82
2022/04/30 07:47:55;;;;;;;0.00;0.00;;;14.80;86.80;;;;;;5033068;28;20041;-83
2022/04/30 07:50:26;;;;;;;0.00;0.00;;;14.80;93.20;;;;;;5030670;28;20026;-83
2022/04/30 07:52:52;;;;;;;0.00;0.00;;;14.80;90.10;;;;;;5018825;28;20222;-83
2022/04/30 07:55:17;;;;;;;0.00;0.00;;;14.90;90.20;;;;;;5016452;28;20083;-81
2022/04/30 07:57:43;;;;;;;0.00;0.00;;;14.90;82.40;;;;;;5030923;28;20270;-83
2022/04/30 08:00:11;;;;;;;0.10;0.10;;;15.00;90.00;;;;;;5021781;28;20317;-81
2022/04/30 08:02:37;;;;;;;0.00;0.00;;;15.00;88.80;;;;;;5021925;28;20048;-81
2022/04/30 08:05:03;;;;;;;0.05;0.05;;;15.00;91.40;;;;;;5016886;28;20022;-81
2022/04/30 08:07:29;;;;;;;0.00;0.00;;;15.10;91.80;;;;;;5021761;28;20029;-83
2022/04/30 08:09:55;;;;;;;0.00;0.00;;;15.10;83.30;;;;;;5023001;28;20072;-82
2022/04/30 08:12:21;;;;;;;0.00;0.00;;;15.20;85.90;;;;;;5030604;28;20018;-82
2022/04/30 08:14:48;;;;;;;0.00;0.00;;;15.20;93.00;;;;;;5021186;28;20036;-81
2022/04/30 08:17:14;;;;;;;0.00;0.00;;;15.20;90.20;;;;;;5026278;28;20037;-82
2022/04/30 08:19:40;;;;;;;2.67;0.30;;;15.30;88.70;;;;;;5030044;28;20088;-82
2022/04/30 08:22:06;;;;;;;0.00;0.00;;;15.40;84.00;;;;;;5019879;28;20503;-82
2022/04/30 08:24:32;;;;;;;0.05;0.05;;;15.50;86.20;;;;;;5024113;28;20052;-82
2022/04/30 08:26:59;;;;;;;0.03;0.00;;;15.60;90.10;;;;;;5033732;28;20029;-81
2022/04/30 08:29:28;;;;;;;0.00;0.00;;;15.50;91.70;;;;;;5032881;28;20037;-79
2022/04/30 08:31:54;;;;;;;0.40;0.40;;;15.50;84.60;;;;;;5015724;28;20022;-81
2022/04/30 08:34:20;;;;;;;0.43;0.43;;;15.50;84.10;;;;;;5000629;28;20291;-82
2022/04/30 08:36:47;;;;;;;0.15;0.10;;;15.50;82.80;;;;;;5023382;28;20204;-82
2022/04/30 08:39:13;;;;;;;0.00;0.00;;;15.50;85.50;;;;;;5018629;28;20029;-82
2022/04/30 08:41:43;;;;;;;0.00;0.00;;;15.50;85.60;;;;;;5021722;28;20052;-82
2022/04/30 08:44:15;;;;;;;0.00;0.00;;;15.60;81.50;;;;;;5019795;28;20262;-83
2022/04/30 08:46:42;;;;;;;0.25;0.22;;;15.70;82.30;;;;;;5029465;28;20053;-83
2022/04/30 08:49:08;;;;;;;0.52;0.15;;;15.70;86.70;;;;;;5024451;28;20060;-83
2022/04/30 08:51:34;;;;;;;0.35;0.20;;;15.80;82.60;;;;;;5019411;28;20026;-82
2022/04/30 08:54:00;;;;;;;0.00;0.00;;;15.90;79.90;;;;;;5028162;28;20063;-82
2022/04/30 08:56:26;;;;;;;0.00;0.00;;;15.90;86.40;;;;;;5019070;28;20018;-82
2022/04/30 08:59:05;;;;;;;0.00;0.00;;;16.20;90.70;;;;;;5030530;28;20064;-82
2022/04/30 09:01:44;;;;;;;0.00;0.00;;;17.10;89.00;;;;;;5023689;28;20081;-83
2022/04/30 09:04:10;;;;;;;0.00;0.00;;;19.00;90.10;;;;;;5021613;28;20092;-83
2022/04/30 09:06:50;;;;;;;0.00;0.00;;;20.60;87.30;;;;;;5017833;28;20022;-83
2022/04/30 09:09:30;;;;;;;0.00;0.00;;;21.60;78.40;;;;;;5021880;28;20209;-83
2022/04/30 09:12:07;;;;;;;0.00;0.00;;;22.50;69.30;;;;;;5020572;28;20211;-82
2022/04/30 09:14:33;;;;;;;0.00;0.00;;;23.50;79.30;;;;;;5019819;28;20029;-81
2022/04/30 09:17:07;;;;;;;0.00;0.00;;;24.40;65.40;;;;;;5025973;28;20189;-80
2022/04/30 09:22:38;;;;;;;0.00;0.00;;;26.50;72.90;;;;;;5023087;28;20071;-81
2022/04/30 09:25:09;;;;;;;0.00;0.00;;;27.50;65.90;;;;;;5014968;28;20281;-83
2022/04/30 09:27:44;;;;;;;0.00;0.00;;;28.40;68.90;;;;;;5029447;28;20105;-81
2022/04/30 09:30:17;;;;;;;0.00;0.00;;;28.80;54.40;;;;;;5019606;28;20088;-82
2022/04/30 09:32:44;;;;;;;0.00;0.00;;;29.00;62.80;;;;;;5022250;28;20033;-82
2022/04/30 09:38:04;;;;;;;0.00;0.00;;;29.50;58.70;;;;;;5014605;28;20084;-81
2022/04/30 09:40:30;;;;;;;0.00;0.00;;;29.30;59.10;;;;;;5006226;28;20161;-82
2022/04/30 09:42:57;;;;;;;0.00;0.00;;;28.80;51.30;;;;;;5017283;28;20029;-82
2022/04/30 09:45:32;;;;;;;0.00;0.00;;;28.40;57.70;;;;;;5017347;28;20052;-82
2022/04/30 09:53:56;;;;;;;0.00;0.00;;;27.90;50.40;;;;;;5018785;28;20559;-82
2022/04/30 09:56:36;;;;;;;0.00;0.00;;;27.30;52.70;;;;;;5016990;28;20087;-82
2022/04/30 09:59:05;;;;;;;0.00;0.00;;;28.00;53.80;;;;;;5031035;28;20022;-81
2022/04/30 10:01:34;;;;;;;1.95;1.85;;;28.50;49.00;;;;;;5029931;28;20029;-81
2022/04/30 10:04:08;;;;;;;0.00;0.00;;;29.10;53.60;;;;;;5019911;28;20052;-82
2022/04/30 10:06:35;;;;;;;0.00;0.00;;;29.50;49.10;;;;;;5014982;28;20018;-81
2022/04/30 10:09:06;;;;;;;0.00;0.00;;;30.00;48.50;;;;;;5017580;28;20091;-83
2022/04/30 10:11:55;;;;;;;0.00;0.00;;;30.50;47.80;;;;;;5032324;28;20022;-83
2022/04/30 10:14:55;;;;;;;0.00;0.00;;;30.60;50.20;;;;;;5021986;28;20072;-83
2022/04/30 10:17:28;;;;;;;0.00;0.00;;;30.70;54.20;;;;;;5018115;28;20040;-83
2022/04/30 10:20:01;;;;;;;0.00;0.00;;;31.00;57.20;;;;;;5020051;28;20058;-83
2022/04/30 10:22:27;;;;;;;0.00;0.00;;;31.00;48.90;;;;;;5022552;28;20361;-83
2022/04/30 10:24:58;;;;;;;0.00;0.00;;;31.20;52.10;;;;;;5022822;28;20099;-83
2022/04/30 10:27:37;;;;;;;0.00;0.00;;;31.60;55.40;;;;;;5028329;28;20041;-83
2022/04/30 10:30:05;;;;;;;0.00;0.00;;;31.80;55.30;;;;;;5023490;28;20021;-83
2022/04/30 10:32:39;;;;;;;0.00;0.00;;;31.80;47.90;;;;;;5037281;28;20041;-84
2022/04/30 10:35:05;;;;;;;0.00;0.00;;;31.40;50.60;;;;;;5025059;28;20343;-82
2022/04/30 10:37:35;;;;;;;0.00;0.00;;;31.00;46.80;;;;;;5029937;28;20033;-83
2022/04/30 10:40:06;;;;;;;0.00;0.00;;;31.00;47.60;;;;;;5032296;28;20056;-82
2022/04/30 10:42:43;;;;;;;0.00;0.00;;;30.90;48.80;;;;;;5027092;28;20022;-82
2022/04/30 10:45:15;;;;;;;0.00;0.00;;;30.90;49.60;;;;;;5032425;28;20089;-83
2022/04/30 10:47:58;;;;;;;0.00;0.00;;;30.80;47.90;;;;;;5024213;28;20196;-83
2022/04/30 10:50:24;;;;;;;0.00;0.00;;;30.80;45.70;;;;;;5029021;28;20098;-81
2022/04/30 10:52:51;;;;;;;0.00;0.00;;;30.60;45.60;;;;;;5027247;28;20025;-82
2022/04/30 10:55:18;;;;;;;0.00;0.00;;;30.30;47.10;;;;;;5035287;28;20029;-79
2022/04/30 10:57:45;;;;;;;0.00;0.00;;;30.00;45.90;;;;;;5032495;28;20144;-82
2022/04/30 11:00:12;;;;;;;0.00;0.00;;;29.80;44.70;;;;;;5021669;28;20105;-83
2022/04/30 11:02:38;;;;;;;0.00;0.00;;;29.70;54.60;;;;;;5019884;28;20101;-83
2022/04/30 11:05:04;;;;;;;0.00;0.00;;;30.00;54.40;;;;;;5019089;28;20096;-83
2022/04/30 11:07:31;;;;;;;0.00;0.00;;;30.40;51.00;;;;;;5028042;28;20045;-83
2022/04/30 11:09:57;;;;;;;0.00;0.00;;;30.60;50.90;;;;;;5026852;28;20029;-83
2022/04/30 11:12:30;;;;;;;0.08;0.00;;;30.10;45.50;;;;;;5036383;28;20092;-83
2022/04/30 11:14:57;;;;;;;0.00;0.00;;;29.40;41.70;;;;;;5024877;28;20113;-83
2022/04/30 11:17:24;;;;;;;0.00;0.00;;;28.50;43.80;;;;;;5031890;28;20034;-83
2022/04/30 11:19:51;;;;;;;0.00;0.00;;;27.80;49.10;;;;;;5026887;28;20267;-81
2022/04/30 11:22:17;;;;;;;0.00;0.00;;;27.70;45.70;;;;;;5025788;28;20121;-79
2022/04/30 11:24:43;;;;;;;0.13;0.13;;;27.20;45.20;;;;;;5033309;28;20064;-82
2022/04/30 11:27:12;;;;;;;0.00;0.00;;;27.40;44.10;;;;;;5023175;28;20037;-82
2022/04/30 11:29:57;;;;;;;0.00;0.00;;;27.60;50.10;;;;;;5033465;28;20045;-84
2022/04/30 11:32:27;;;;;;;0.00;0.00;;;27.80;44.50;;;;;;5025518;28;20029;-83
2022/04/30 11:35:01;;;;;;;0.00;0.00;;;27.40;45.50;;;;;;5023184;28;20074;-83
2022/04/30 11:37:36;;;;;;;0.00;0.00;;;26.80;44.10;;;;;;5023446;28;20113;-80
2022/04/30 11:40:06;;;;;;;0.00;0.00;;;26.70;46.20;;;;;;5026098;28;20093;-83
2022/04/30 11:42:32;;;;;;;0.00;0.00;;;26.60;44.20;;;;;;5037168;28;20017;-82
2022/04/30 11:44:58;;;;;;;0.00;0.00;;;27.00;42.90;;;;;;5036926;28;20284;-83
2022/04/30 11:47:25;;;;;;;0.20;0.00;;;27.30;52.90;;;;;;5020212;28;20072;-83
2022/04/30 11:50:11;;;;;;;0.00;0.00;;;26.80;42.60;;;;;;5021630;28;20034;-83
2022/04/30 11:52:37;;;;;;;0.00;0.00;;;26.20;45.10;;;;;;5024785;28;20269;-82
2022/04/30 11:55:05;;;;;;;0.00;0.00;;;25.90;45.70;;;;;;5022348;28;20131;-83
2022/04/30 11:57:32;;;;;;;0.00;0.00;;;25.50;44.90;;;;;;5033008;28;20083;-84
2022/04/30 11:59:58;;;;;;;0.00;0.00;;;25.20;44.30;;;;;;5031140;28;20260;-80
2022/04/30 12:02:24;;;;;;;0.00;0.00;;;24.70;46.70;;;;;;5023462;28;20041;-85
2022/04/30 12:04:52;;;;;;;0.00;0.00;;;24.00;45.70;;;;;;5027212;28;20096;-83
2022/04/30 12:07:18;;;;;;;0.00;0.00;;;23.60;46.20;;;;;;5024030;28;20273;-84
2022/04/30 12:09:50;;;;;;;0.00;0.00;;;23.30;46.80;;;;;;5019925;28;20112;-83
2022/04/30 12:12:18;;;;;;;0.00;0.00;;;22.70;48.00;;;;;;5027445;28;20096;-83
2022/04/30 12:14:55;;;;;;;0.00;0.00;;;22.20;54.30;;;;;;5019131;28;20115;-82
2022/04/30 12:17:32;;;;;;;0.00;0.00;;;21.80;49.60;;;;;;5033837;28;20037;-84
2022/04/30 12:25:33;;;;;;;0.00;0.00;;;21.00;52.90;;;;;;5025398;28;20268;-82
2022/04/30 12:28:02;;;;;;;0.17;0.15;;;20.80;52.20;;;;;;5022303;28;20026;-80
2022/04/30 12:30:29;;;;;;;0.00;0.00;;;20.70;53.60;;;;;;5025959;28;20018;-82
2022/04/30 12:33:00;;;;;;;0.00;0.00;;;20.50;55.80;;;;;;5027346;28;20104;-82
2022/04/30 12:35:31;;;;;;;0.10;0.10;;;20.50;52.00;;;;;;5032326;28;20025;-81
2022/04/30 12:38:03;;;;;;;0.00;0.00;;;20.40;56.00;;;;;;5033213;28;20288;-82
2022/04/30 12:40:29;;;;;;;0.00;0.00;;;20.30;52.10;;;;;;5024700;28;20037;-83
2022/04/30 12:42:55;;;;;;;0.00;0.00;;;20.30;52.90;;;;;;5022943;28;20072;-83
2022/04/30 12:45:21;;;;;;;0.00;0.00;;;20.40;51.90;;;;;;5013365;28;20189;-83
2022/04/30 12:47:49;;;;;;;3.00;0.45;;;20.40;54.10;;;;;;5020333;28;20097;-78
2022/04/30 12:50:15;;;;;;;0.10;0.10;;;20.40;53.50;;;;;;5028420;28;20025;-81
2022/04/30 12:52:41;;;;;;;0.00;0.00;;;20.40;51.70;;;;;;5022355;28;20292;-83
2022/04/30 12:55:07;;;;;;;0.00;0.00;;;20.30;55.30;;;;;;5022342;28;20292;-78
2022/04/30 12:57:32;;;;;;;1.00;0.00;;;20.30;53.90;;;;;;5021177;28;20269;-83
2022/04/30 13:00:00;;;;;;;0.00;0.00;;;20.40;51.90;;;;;;5023809;28;20025;-84
2022/04/30 13:02:27;;;;;;;0.00;0.00;;;20.30;53.50;;;;;;5019366;28;20022;-85
2022/04/30 13:04:52;;;;;;;0.00;0.00;;;20.30;59.30;;;;;;5028768;28;20072;-84
2022/04/30 13:07:18;;;;;;;0.00;0.00;;;20.30;57.60;;;;;;5021993;28;20307;-81
2022/04/30 13:15:13;;;;;;;0.00;0.00;;;20.40;50.90;;;;;;5017405;28;20023;-82
2022/04/30 13:17:39;;;;;;;0.00;0.00;;;20.30;53.60;;;;;;5022880;28;20057;-83
2022/04/30 13:20:05;;;;;;;0.00;0.00;;;20.30;54.50;;;;;;5031543;28;20053;-84
2022/04/30 13:22:32;;;;;;;0.00;0.00;;;20.40;51.20;;;;;;5032393;28;20184;-82
2022/04/30 13:24:58;;;;;;;0.00;0.00;;;20.40;50.50;;;;;;5029334;28;20053;-81
2022/04/30 13:27:24;;;;;;;0.22;0.10;;;20.30;53.20;;;;;;5002121;28;20088;-84
2022/04/30 13:29:51;;;;;;;0.00;0.00;;;20.30;53.00;;;;;;5001506;28;20309;-78
2022/04/30 13:32:16;;;;;;;0.00;0.00;;;20.30;50.20;;;;;;5029887;28;20261;-81
2022/04/30 13:34:42;;;;;;;0.10;0.10;;;20.20;52.50;;;;;;5020026;28;20089;-83
2022/04/30 13:37:09;;;;;;;0.00;0.00;;;20.30;50.00;;;;;;5022943;28;20036;-84
2022/04/30 13:39:35;;;;;;;0.00;0.00;;;20.20;52.40;;;;;;5031039;28;20029;-82
2022/04/30 13:42:01;;;;;;;0.00;0.00;;;20.20;51.10;;;;;;5023176;28;20087;-81
2022/04/30 13:44:27;;;;;;;0.00;0.00;;;20.20;50.60;;;;;;5023865;28;20112;-83
2022/04/30 13:46:53;;;;;;;0.25;0.10;;;20.20;55.90;;;;;;5033484;28;20022;-82
2022/04/30 13:49:19;;;;;;;0.00;0.00;;;20.30;53.90;;;;;;5036497;28;20312;-84